sensor_id;sensor_type;location;lat;lon;timestamp;temperature;humidity
72865;DHT22;61000;48.120;11.548;2023-01-10T00:01:48;4.10;99.90
72865;DHT22;61000;48.120;11.548;2023-01-10T00:04:14;4.10;99.90
72865;DHT22;61000;48.120;11.548;2023-01-10T00:06:41;4.10;99.90
72865;DHT22;61000;48.120;11.548;2023-01-10T00:09:10;4.20;99.90
72865;DHT22;61000;48.120;11.548;2023-01-10T00:11:37;4.20;99.90
72865;DHT22;61000;48.120;11.548;2023-01-10T00:14:21;4.20;99.90
72865;DHT22;61000;48.120;11.548;2023-01-10T00:16:48;4.10;99.90
72865;DHT22;61000;48.120;11.548;2023-01-10T00:19:15;4.10;99.90
72865;DHT22;61000;48.120;11.548;2023-01-10T00:21:41;4.10;99.90
72865;DHT22;61000;48.120;11.548;2023-01-10T00:24:10;4.10;99.90
72865;DHT22;61000;48.120;11.548;2023-01-10T00:26:44;4.20;99.90
72865;DHT22;61000;48.120;11.548;2023-01-10T00:29:16;4.30;99.90
72865;DHT22;61000;48.120;11.548;2023-01-10T00:31:42;4.20;99.90
72865;DHT22;61000;48.120;11.548;2023-01-10T00:34:09;4.20;99.90
72865;DHT22;61000;48.120;11.548;2023-01-10T00:36:36;4.20;99.90
72865;DHT22;61000;48.120;11.548;2023-01-10T00:39:03;4.30;99.90
72865;DHT22;61000;48.120;11.548;2023-01-10T00:41:38;4.30;99.90
72865;DHT22;61000;48.120;11.548;2023-01-10T00:44:22;4.30;99.90
72865;DHT22;61000;48.120;11.548;2023-01-10T00:46:50;4.30;99.90
72865;DHT22;61000;48.120;11.548;2023-01-10T00:49:17;4.30;99.90
72865;DHT22;61000;48.120;11.548;2023-01-10T00:51:44;4.30;99.90
72865;DHT22;61000;48.120;11.548;2023-01-10T00:54:12;4.40;99.90
72865;DHT22;61000;48.120;11.548;2023-01-10T00:56:41;4.40;99.90
72865;DHT22;61000;48.120;11.548;2023-01-10T00:59:08;4.40;99.90
72865;DHT22;61000;48.120;11.548;2023-01-10T01:01:34;4.40;99.90
72865;DHT22;61000;48.120;11.548;2023-01-10T01:04:01;4.40;99.90
72865;DHT22;61000;48.120;11.548;2023-01-10T01:06:28;4.40;99.90
72865;DHT22;61000;48.120;11.548;2023-01-10T01:08:55;4.40;99.90
72865;DHT22;61000;48.120;11.548;2023-01-10T01:11:22;4.40;99.90
72865;DHT22;61000;48.120;11.548;2023-01-10T01:13:50;4.40;99.90
72865;DHT22;61000;48.120;11.548;2023-01-10T01:16:18;4.40;99.90
72865;DHT22;61000;48.120;11.548;2023-01-10T01:18:45;4.40;99.90
72865;DHT22;61000;48.120;11.548;2023-01-10T01:21:11;4.40;99.90
72865;DHT22;61000;48.120;11.548;2023-01-10T01:23:38;4.50;99.90
72865;DHT22;61000;48.120;11.548;2023-01-10T01:26:05;4.40;99.90
72865;DHT22;61000;48.120;11.548;2023-01-10T01:28:32;4.40;99.90
72865;DHT22;61000;48.120;11.548;2023-01-10T01:31:05;4.40;99.90
72865;DHT22;61000;48.120;11.548;2023-01-10T01:33:32;4.40;99.90
72865;DHT22;61000;48.120;11.548;2023-01-10T01:35:59;4.40;99.90
72865;DHT22;61000;48.120;11.548;2023-01-10T01:38:26;4.30;99.90
72865;DHT22;61000;48.120;11.548;2023-01-10T01:40:53;4.30;99.90
72865;DHT22;61000;48.120;11.548;2023-01-10T01:43:24;4.30;99.90
72865;DHT22;61000;48.120;11.548;2023-01-10T01:45:52;4.30;99.90
72865;DHT22;61000;48.120;11.548;2023-01-10T01:48:33;4.40;99.90
72865;DHT22;61000;48.120;11.548;2023-01-10T01:51:06;4.40;99.90
72865;DHT22;61000;48.120;11.548;2023-01-10T01:53:43;4.30;99.90
72865;DHT22;61000;48.120;11.548;2023-01-10T01:56:14;4.40;99.90
72865;DHT22;61000;48.120;11.548;2023-01-10T01:58:46;4.40;99.90
72865;DHT22;61000;48.120;11.548;2023-01-10T02:01:14;4.40;99.90
72865;DHT22;61000;48.120;11.548;2023-01-10T02:03:48;4.40;99.90
72865;DHT22;61000;48.120;11.548;2023-01-10T02:06:17;4.40;99.90
72865;DHT22;61000;48.120;11.548;2023-01-10T02:08:49;4.40;99.90
72865;DHT22;61000;48.120;11.548;2023-01-10T02:11:19;4.40;99.90
72865;DHT22;61000;48.120;11.548;2023-01-10T02:13:49;4.40;99.90
72865;DHT22;61000;48.120;11.548;2023-01-10T02:16:16;4.50;99.90
72865;DHT22;61000;48.120;11.548;2023-01-10T02:18:44;4.40;99.90
72865;DHT22;61000;48.120;11.548;2023-01-10T02:24:35;4.40;99.90
72865;DHT22;61000;48.120;11.548;2023-01-10T02:27:25;4.40;99.90
72865;DHT22;61000;48.120;11.548;2023-01-10T02:30:23;4.40;99.90
72865;DHT22;61000;48.120;11.548;2023-01-10T02:32:58;4.40;99.90
72865;DHT22;61000;48.120;11.548;2023-01-10T02:35:47;4.40;99.90
72865;DHT22;61000;48.120;11.548;2023-01-10T02:38:26;4.40;99.90
72865;DHT22;61000;48.120;11.548;2023-01-10T02:41:02;4.40;99.90
72865;DHT22;61000;48.120;11.548;2023-01-10T02:43:33;4.30;99.90
72865;DHT22;61000;48.120;11.548;2023-01-10T02:46:05;4.40;99.90
72865;DHT22;61000;48.120;11.548;2023-01-10T02:48:34;4.30;99.90
72865;DHT22;61000;48.120;11.548;2023-01-10T02:51:03;4.30;99.90
72865;DHT22;61000;48.120;11.548;2023-01-10T02:53:36;4.30;99.90
72865;DHT22;61000;48.120;11.548;2023-01-10T02:56:16;4.30;99.90
72865;DHT22;61000;48.120;11.548;2023-01-10T02:59:04;4.30;99.90
72865;DHT22;61000;48.120;11.548;2023-01-10T03:01:37;4.40;99.90
72865;DHT22;61000;48.120;11.548;2023-01-10T03:04:15;4.30;99.90
72865;DHT22;61000;48.120;11.548;2023-01-10T03:06:46;4.30;99.90
72865;DHT22;61000;48.120;11.548;2023-01-10T03:09:19;4.30;99.90
72865;DHT22;61000;48.120;11.548;2023-01-10T03:11:51;4.30;99.90
72865;DHT22;61000;48.120;11.548;2023-01-10T03:14:24;4.20;99.90
72865;DHT22;61000;48.120;11.548;2023-01-10T03:16:57;4.30;99.90
72865;DHT22;61000;48.120;11.548;2023-01-10T03:19:30;4.20;99.90
72865;DHT22;61000;48.120;11.548;2023-01-10T03:22:00;4.20;99.90
72865;DHT22;61000;48.120;11.548;2023-01-10T03:24:30;4.20;99.90
72865;DHT22;61000;48.120;11.548;2023-01-10T03:27:04;4.20;99.90
72865;DHT22;61000;48.120;11.548;2023-01-10T03:29:38;4.10;99.90
72865;DHT22;61000;48.120;11.548;2023-01-10T03:32:09;4.20;99.90
72865;DHT22;61000;48.120;11.548;2023-01-10T03:34:39;4.20;99.90
72865;DHT22;61000;48.120;11.548;2023-01-10T03:37:11;4.20;99.90
72865;DHT22;61000;48.120;11.548;2023-01-10T03:39:43;4.20;99.90
72865;DHT22;61000;48.120;11.548;2023-01-10T03:42:20;4.20;99.90
72865;DHT22;61000;48.120;11.548;2023-01-10T03:44:53;4.20;99.90
72865;DHT22;61000;48.120;11.548;2023-01-10T03:47:26;4.20;99.90
72865;DHT22;61000;48.120;11.548;2023-01-10T03:50:00;4.20;99.90
72865;DHT22;61000;48.120;11.548;2023-01-10T03:52:28;4.20;99.90
72865;DHT22;61000;48.120;11.548;2023-01-10T03:54:56;4.30;99.90
72865;DHT22;61000;48.120;11.548;2023-01-10T03:57:25;4.30;99.90
72865;DHT22;61000;48.120;11.548;2023-01-10T03:59:54;4.30;99.90
72865;DHT22;61000;48.120;11.548;2023-01-10T04:02:22;4.30;99.90
72865;DHT22;61000;48.120;11.548;2023-01-10T04:04:50;4.30;99.90
72865;DHT22;61000;48.120;11.548;2023-01-10T04:07:18;4.30;99.90
72865;DHT22;61000;48.120;11.548;2023-01-10T04:09:45;4.30;99.90
72865;DHT22;61000;48.120;11.548;2023-01-10T04:12:12;4.30;99.90
72865;DHT22;61000;48.120;11.548;2023-01-10T04:14:40;4.30;99.90
72865;DHT22;61000;48.120;11.548;2023-01-10T04:17:07;4.30;99.90
72865;DHT22;61000;48.120;11.548;2023-01-10T04:19:34;4.30;99.90
72865;DHT22;61000;48.120;11.548;2023-01-10T04:22:01;4.30;99.90
72865;DHT22;61000;48.120;11.548;2023-01-10T04:24:31;4.40;99.90
72865;DHT22;61000;48.120;11.548;2023-01-10T04:26:58;4.30;99.90
72865;DHT22;61000;48.120;11.548;2023-01-10T04:29:25;4.40;99.90
72865;DHT22;61000;48.120;11.548;2023-01-10T04:31:52;4.30;99.90
72865;DHT22;61000;48.120;11.548;2023-01-10T04:34:19;4.30;99.90
72865;DHT22;61000;48.120;11.548;2023-01-10T04:36:47;4.30;99.90
72865;DHT22;61000;48.120;11.548;2023-01-10T04:39:14;4.30;99.90
72865;DHT22;61000;48.120;11.548;2023-01-10T04:41:43;4.30;99.90
72865;DHT22;61000;48.120;11.548;2023-01-10T04:44:10;4.20;99.90
72865;DHT22;61000;48.120;11.548;2023-01-10T04:46:37;4.20;99.90
72865;DHT22;61000;48.120;11.548;2023-01-10T04:49:04;4.20;99.90
72865;DHT22;61000;48.120;11.548;2023-01-10T04:51:31;4.20;99.90
72865;DHT22;61000;48.120;11.548;2023-01-10T04:53:58;4.20;99.90
72865;DHT22;61000;48.120;11.548;2023-01-10T04:56:25;4.10;99.90
72865;DHT22;61000;48.120;11.548;2023-01-10T04:58:53;4.20;99.90
72865;DHT22;61000;48.120;11.548;2023-01-10T05:01:21;4.10;99.90
72865;DHT22;61000;48.120;11.548;2023-01-10T05:03:49;4.20;99.90
72865;DHT22;61000;48.120;11.548;2023-01-10T05:06:16;4.10;99.90
72865;DHT22;61000;48.120;11.548;2023-01-10T05:08:43;4.10;99.90
72865;DHT22;61000;48.120;11.548;2023-01-10T05:11:10;4.10;99.90
72865;DHT22;61000;48.120;11.548;2023-01-10T05:13:37;4.10;99.90
72865;DHT22;61000;48.120;11.548;2023-01-10T05:16:06;4.10;99.90
72865;DHT22;61000;48.120;11.548;2023-01-10T05:18:33;4.10;99.90
72865;DHT22;61000;48.120;11.548;2023-01-10T05:21:02;4.10;99.90
72865;DHT22;61000;48.120;11.548;2023-01-10T05:23:29;4.10;99.90
72865;DHT22;61000;48.120;11.548;2023-01-10T05:25:56;4.10;99.90
72865;DHT22;61000;48.120;11.548;2023-01-10T05:28:24;4.10;99.90
72865;DHT22;61000;48.120;11.548;2023-01-10T05:30:50;4.10;99.90
72865;DHT22;61000;48.120;11.548;2023-01-10T05:33:19;4.10;99.90
72865;DHT22;61000;48.120;11.548;2023-01-10T05:35:45;4.10;99.90
72865;DHT22;61000;48.120;11.548;2023-01-10T05:38:12;4.10;99.90
72865;DHT22;61000;48.120;11.548;2023-01-10T05:40:39;4.10;99.90
72865;DHT22;61000;48.120;11.548;2023-01-10T05:43:06;4.10;99.90
72865;DHT22;61000;48.120;11.548;2023-01-10T05:45:33;4.10;99.90
72865;DHT22;61000;48.120;11.548;2023-01-10T05:47:59;4.10;99.90
72865;DHT22;61000;48.120;11.548;2023-01-10T05:50:27;4.10;99.90
72865;DHT22;61000;48.120;11.548;2023-01-10T05:52:58;4.10;99.90
72865;DHT22;61000;48.120;11.548;2023-01-10T05:55:29;4.00;99.90
72865;DHT22;61000;48.120;11.548;2023-01-10T05:57:55;4.10;99.90
72865;DHT22;61000;48.120;11.548;2023-01-10T06:00:23;4.10;99.90
72865;DHT22;61000;48.120;11.548;2023-01-10T06:02:50;4.10;99.90
72865;DHT22;61000;48.120;11.548;2023-01-10T06:05:19;4.10;99.90
72865;DHT22;61000;48.120;11.548;2023-01-10T06:07:48;4.10;99.90
72865;DHT22;61000;48.120;11.548;2023-01-10T06:10:15;4.20;99.90
72865;DHT22;61000;48.120;11.548;2023-01-10T06:12:42;4.20;99.90
72865;DHT22;61000;48.120;11.548;2023-01-10T06:15:10;4.10;99.90
72865;DHT22;61000;48.120;11.548;2023-01-10T06:17:37;4.20;99.90
72865;DHT22;61000;48.120;11.548;2023-01-10T06:20:04;4.20;99.90
72865;DHT22;61000;48.120;11.548;2023-01-10T06:22:31;4.20;99.90
72865;DHT22;61000;48.120;11.548;2023-01-10T06:24:59;4.20;99.90
72865;DHT22;61000;48.120;11.548;2023-01-10T06:27:26;4.20;99.90
72865;DHT22;61000;48.120;11.548;2023-01-10T06:29:53;4.20;99.90
72865;DHT22;61000;48.120;11.548;2023-01-10T06:32:20;4.20;99.90
72865;DHT22;61000;48.120;11.548;2023-01-10T06:34:47;5.30;99.90
72865;DHT22;61000;48.120;11.548;2023-01-10T06:37:13;4.20;99.90
72865;DHT22;61000;48.120;11.548;2023-01-10T06:39:40;4.20;99.90
72865;DHT22;61000;48.120;11.548;2023-01-10T06:42:08;4.10;99.90
72865;DHT22;61000;48.120;11.548;2023-01-10T06:44:35;4.20;99.90
72865;DHT22;61000;48.120;11.548;2023-01-10T06:47:02;4.20;99.90
72865;DHT22;61000;48.120;11.548;2023-01-10T06:49:29;4.20;99.90
72865;DHT22;61000;48.120;11.548;2023-01-10T06:51:56;4.20;99.90
72865;DHT22;61000;48.120;11.548;2023-01-10T06:54:23;4.20;99.90
72865;DHT22;61000;48.120;11.548;2023-01-10T06:56:49;4.20;99.90
72865;DHT22;61000;48.120;11.548;2023-01-10T06:59:18;4.30;99.90
72865;DHT22;61000;48.120;11.548;2023-01-10T07:01:44;4.20;99.90
72865;DHT22;61000;48.120;11.548;2023-01-10T07:04:11;4.20;99.90
72865;DHT22;61000;48.120;11.548;2023-01-10T07:06:38;4.10;99.90
72865;DHT22;61000;48.120;11.548;2023-01-10T07:09:07;4.10;99.90
72865;DHT22;61000;48.120;11.548;2023-01-10T07:11:34;4.20;99.90
72865;DHT22;61000;48.120;11.548;2023-01-10T07:14:01;4.10;99.90
72865;DHT22;61000;48.120;11.548;2023-01-10T07:16:30;4.10;99.90
72865;DHT22;61000;48.120;11.548;2023-01-10T07:18:58;4.10;99.90
72865;DHT22;61000;48.120;11.548;2023-01-10T07:21:25;4.10;99.90
72865;DHT22;61000;48.120;11.548;2023-01-10T07:23:52;4.10;99.90
72865;DHT22;61000;48.120;11.548;2023-01-10T07:26:19;4.10;99.90
72865;DHT22;61000;48.120;11.548;2023-01-10T07:28:47;4.10;99.90
72865;DHT22;61000;48.120;11.548;2023-01-10T07:31:16;4.20;99.90
72865;DHT22;61000;48.120;11.548;2023-01-10T07:33:44;4.20;99.90
72865;DHT22;61000;48.120;11.548;2023-01-10T07:36:11;4.10;99.90
72865;DHT22;61000;48.120;11.548;2023-01-10T07:38:38;4.10;99.90
72865;DHT22;61000;48.120;11.548;2023-01-10T07:41:05;4.10;99.90
72865;DHT22;61000;48.120;11.548;2023-01-10T07:43:32;4.10;99.90
72865;DHT22;61000;48.120;11.548;2023-01-10T07:46:01;4.10;99.90
72865;DHT22;61000;48.120;11.548;2023-01-10T07:48:28;4.10;99.90
72865;DHT22;61000;48.120;11.548;2023-01-10T07:50:57;4.10;99.90
72865;DHT22;61000;48.120;11.548;2023-01-10T07:53:24;4.20;99.90
72865;DHT22;61000;48.120;11.548;2023-01-10T07:55:51;4.20;99.90
72865;DHT22;61000;48.120;11.548;2023-01-10T07:58:19;4.20;99.90
72865;DHT22;61000;48.120;11.548;2023-01-10T08:00:46;4.20;99.90
72865;DHT22;61000;48.120;11.548;2023-01-10T08:03:14;4.20;99.90
72865;DHT22;61000;48.120;11.548;2023-01-10T08:05:41;4.20;99.90
72865;DHT22;61000;48.120;11.548;2023-01-10T08:08:11;4.20;99.90
72865;DHT22;61000;48.120;11.548;2023-01-10T08:10:39;4.20;99.90
72865;DHT22;61000;48.120;11.548;2023-01-10T08:13:05;4.20;99.90
72865;DHT22;61000;48.120;11.548;2023-01-10T08:15:32;4.30;99.90
72865;DHT22;61000;48.120;11.548;2023-01-10T08:17:59;4.20;99.90
72865;DHT22;61000;48.120;11.548;2023-01-10T08:20:26;4.20;99.90
72865;DHT22;61000;48.120;11.548;2023-01-10T08:22:55;4.20;99.90
72865;DHT22;61000;48.120;11.548;2023-01-10T08:25:24;4.10;99.90
72865;DHT22;61000;48.120;11.548;2023-01-10T08:27:51;4.20;99.90
72865;DHT22;61000;48.120;11.548;2023-01-10T08:30:18;4.10;99.90
72865;DHT22;61000;48.120;11.548;2023-01-10T08:32:45;4.20;99.90
72865;DHT22;61000;48.120;11.548;2023-01-10T08:35:12;4.10;99.90
72865;DHT22;61000;48.120;11.548;2023-01-10T08:37:39;4.10;99.90
72865;DHT22;61000;48.120;11.548;2023-01-10T08:40:07;4.00;99.90
72865;DHT22;61000;48.120;11.548;2023-01-10T08:42:35;4.00;99.90
72865;DHT22;61000;48.120;11.548;2023-01-10T08:45:03;4.10;99.90
72865;DHT22;61000;48.120;11.548;2023-01-10T08:47:30;4.10;99.90
72865;DHT22;61000;48.120;11.548;2023-01-10T08:49:57;4.10;99.90
72865;DHT22;61000;48.120;11.548;2023-01-10T08:52:23;4.10;99.90
72865;DHT22;61000;48.120;11.548;2023-01-10T08:54:50;4.10;99.90
72865;DHT22;61000;48.120;11.548;2023-01-10T08:57:17;4.10;99.90
72865;DHT22;61000;48.120;11.548;2023-01-10T08:59:45;4.10;99.90
72865;DHT22;61000;48.120;11.548;2023-01-10T09:02:12;4.10;99.90
72865;DHT22;61000;48.120;11.548;2023-01-10T09:04:39;4.20;99.90
72865;DHT22;61000;48.120;11.548;2023-01-10T09:07:06;4.30;99.90
72865;DHT22;61000;48.120;11.548;2023-01-10T09:09:33;4.20;99.90
72865;DHT22;61000;48.120;11.548;2023-01-10T09:12:00;4.10;99.90
72865;DHT22;61000;48.120;11.548;2023-01-10T09:14:26;4.10;99.90
72865;DHT22;61000;48.120;11.548;2023-01-10T09:16:55;3.90;99.90
72865;DHT22;61000;48.120;11.548;2023-01-10T09:19:21;3.70;99.90
72865;DHT22;61000;48.120;11.548;2023-01-10T09:21:48;3.70;99.90
72865;DHT22;61000;48.120;11.548;2023-01-10T09:24:15;3.60;99.90
72865;DHT22;61000;48.120;11.548;2023-01-10T09:26:42;3.60;99.90
72865;DHT22;61000;48.120;11.548;2023-01-10T09:29:09;3.50;99.90
72865;DHT22;61000;48.120;11.548;2023-01-10T09:31:36;3.50;99.90
72865;DHT22;61000;48.120;11.548;2023-01-10T09:34:04;3.50;99.90
72865;DHT22;61000;48.120;11.548;2023-01-10T09:36:31;3.50;99.90
72865;DHT22;61000;48.120;11.548;2023-01-10T09:38:58;3.60;99.90
72865;DHT22;61000;48.120;11.548;2023-01-10T09:41:37;3.80;99.90
72865;DHT22;61000;48.120;11.548;2023-01-10T09:44:15;3.90;99.90
72865;DHT22;61000;48.120;11.548;2023-01-10T09:46:51;4.00;99.90
72865;DHT22;61000;48.120;11.548;2023-01-10T09:49:34;4.20;99.90
72865;DHT22;61000;48.120;11.548;2023-01-10T09:52:18;4.30;99.90
72865;DHT22;61000;48.120;11.548;2023-01-10T09:54:46;4.40;99.90
72865;DHT22;61000;48.120;11.548;2023-01-10T09:57:16;4.50;99.90
72865;DHT22;61000;48.120;11.548;2023-01-10T09:59:46;4.70;99.90
72865;DHT22;61000;48.120;11.548;2023-01-10T10:02:22;4.80;99.90
72865;DHT22;61000;48.120;11.548;2023-01-10T10:05:03;5.00;99.90
72865;DHT22;61000;48.120;11.548;2023-01-10T10:07:33;5.10;99.90
72865;DHT22;61000;48.120;11.548;2023-01-10T10:10:00;5.20;99.90
72865;DHT22;61000;48.120;11.548;2023-01-10T10:12:32;5.30;99.90
72865;DHT22;61000;48.120;11.548;2023-01-10T10:15:14;5.30;99.90
72865;DHT22;61000;48.120;11.548;2023-01-10T10:17:48;5.30;99.90
72865;DHT22;61000;48.120;11.548;2023-01-10T10:20:30;5.30;99.90
72865;DHT22;61000;48.120;11.548;2023-01-10T10:23:12;5.20;99.90
72865;DHT22;61000;48.120;11.548;2023-01-10T10:25:51;5.20;99.90
72865;DHT22;61000;48.120;11.548;2023-01-10T10:34:37;5.30;99.90
72865;DHT22;61000;48.120;11.548;2023-01-10T10:37:12;5.30;99.90
72865;DHT22;61000;48.120;11.548;2023-01-10T10:39:46;5.40;99.90
72865;DHT22;61000;48.120;11.548;2023-01-10T10:42:16;5.40;99.90
72865;DHT22;61000;48.120;11.548;2023-01-10T10:44:46;5.40;99.90
72865;DHT22;61000;48.120;11.548;2023-01-10T10:47:18;5.40;99.90
72865;DHT22;61000;48.120;11.548;2023-01-10T10:49:49;5.40;99.90
72865;DHT22;61000;48.120;11.548;2023-01-10T10:52:21;5.40;99.90
72865;DHT22;61000;48.120;11.548;2023-01-10T10:54:49;5.30;99.90
72865;DHT22;61000;48.120;11.548;2023-01-10T10:57:16;5.30;99.90
72865;DHT22;61000;48.120;11.548;2023-01-10T10:59:46;5.40;99.90
72865;DHT22;61000;48.120;11.548;2023-01-10T11:02:25;5.50;99.90
72865;DHT22;61000;48.120;11.548;2023-01-10T11:04:55;5.50;99.90
72865;DHT22;61000;48.120;11.548;2023-01-10T11:07:24;5.70;99.90
72865;DHT22;61000;48.120;11.548;2023-01-10T11:09:53;5.70;99.90
72865;DHT22;61000;48.120;11.548;2023-01-10T11:12:31;5.70;99.90
72865;DHT22;61000;48.120;11.548;2023-01-10T11:14:58;5.60;99.90
72865;DHT22;61000;48.120;11.548;2023-01-10T11:17:28;5.50;99.90
72865;DHT22;61000;48.120;11.548;2023-01-10T11:19:57;5.50;99.90
72865;DHT22;61000;48.120;11.548;2023-01-10T11:22:27;5.50;99.90
72865;DHT22;61000;48.120;11.548;2023-01-10T11:24:55;5.50;99.90
72865;DHT22;61000;48.120;11.548;2023-01-10T11:27:26;5.40;99.90
72865;DHT22;61000;48.120;11.548;2023-01-10T11:29:56;5.50;99.90
72865;DHT22;61000;48.120;11.548;2023-01-10T11:32:30;5.50;99.90
72865;DHT22;61000;48.120;11.548;2023-01-10T11:34:59;5.40;99.90
72865;DHT22;61000;48.120;11.548;2023-01-10T11:37:31;5.40;99.90
72865;DHT22;61000;48.120;11.548;2023-01-10T11:40:19;5.40;99.90
72865;DHT22;61000;48.120;11.548;2023-01-10T11:42:48;5.40;99.90
72865;DHT22;61000;48.120;11.548;2023-01-10T11:45:24;5.30;99.90
72865;DHT22;61000;48.120;11.548;2023-01-10T11:47:54;5.20;99.90
72865;DHT22;61000;48.120;11.548;2023-01-10T11:50:24;5.20;99.90
72865;DHT22;61000;48.120;11.548;2023-01-10T11:52:54;5.10;99.90
72865;DHT22;61000;48.120;11.548;2023-01-10T11:55:23;5.20;99.90
72865;DHT22;61000;48.120;11.548;2023-01-10T11:58:00;5.20;99.90
72865;DHT22;61000;48.120;11.548;2023-01-10T12:00:34;5.20;99.90
72865;DHT22;61000;48.120;11.548;2023-01-10T12:03:03;5.20;99.90
72865;DHT22;61000;48.120;11.548;2023-01-10T12:05:39;5.20;99.90
72865;DHT22;61000;48.120;11.548;2023-01-10T12:08:23;5.30;99.90
72865;DHT22;61000;48.120;11.548;2023-01-10T12:10:59;5.30;99.90
72865;DHT22;61000;48.120;11.548;2023-01-10T12:13:28;5.40;99.90
72865;DHT22;61000;48.120;11.548;2023-01-10T12:16:18;5.50;99.90
72865;DHT22;61000;48.120;11.548;2023-01-10T12:18:47;5.60;99.90
72865;DHT22;61000;48.120;11.548;2023-01-10T12:21:16;5.70;99.90
72865;DHT22;61000;48.120;11.548;2023-01-10T12:23:47;5.80;99.90
72865;DHT22;61000;48.120;11.548;2023-01-10T12:26:15;5.80;99.90
72865;DHT22;61000;48.120;11.548;2023-01-10T12:28:47;5.70;99.90
72865;DHT22;61000;48.120;11.548;2023-01-10T12:31:15;5.70;99.90
72865;DHT22;61000;48.120;11.548;2023-01-10T12:33:46;5.70;99.90
72865;DHT22;61000;48.120;11.548;2023-01-10T12:36:27;5.60;99.90
72865;DHT22;61000;48.120;11.548;2023-01-10T12:39:02;5.70;99.90
72865;DHT22;61000;48.120;11.548;2023-01-10T12:41:37;5.70;99.90
72865;DHT22;61000;48.120;11.548;2023-01-10T12:44:27;5.80;99.90
72865;DHT22;61000;48.120;11.548;2023-01-10T12:47:01;5.80;99.90
72865;DHT22;61000;48.120;11.548;2023-01-10T12:49:33;5.90;99.90
72865;DHT22;61000;48.120;11.548;2023-01-10T12:52:04;6.00;99.90
72865;DHT22;61000;48.120;11.548;2023-01-10T12:54:33;5.90;99.90
72865;DHT22;61000;48.120;11.548;2023-01-10T12:57:04;5.80;99.90
72865;DHT22;61000;48.120;11.548;2023-01-10T12:59:35;5.70;99.90
72865;DHT22;61000;48.120;11.548;2023-01-10T13:02:09;5.80;99.90
72865;DHT22;61000;48.120;11.548;2023-01-10T13:04:39;5.70;99.90
72865;DHT22;61000;48.120;11.548;2023-01-10T13:07:09;5.70;99.90
72865;DHT22;61000;48.120;11.548;2023-01-10T13:09:40;5.60;99.90
72865;DHT22;61000;48.120;11.548;2023-01-10T13:12:11;5.70;99.90
72865;DHT22;61000;48.120;11.548;2023-01-10T13:14:45;5.80;99.90
72865;DHT22;61000;48.120;11.548;2023-01-10T13:17:24;5.90;99.90
72865;DHT22;61000;48.120;11.548;2023-01-10T13:20:17;5.90;99.90
72865;DHT22;61000;48.120;11.548;2023-01-10T13:22:45;6.00;99.90
72865;DHT22;61000;48.120;11.548;2023-01-10T13:25:21;6.10;99.90
72865;DHT22;61000;48.120;11.548;2023-01-10T13:27:55;6.20;99.90
72865;DHT22;61000;48.120;11.548;2023-01-10T13:30:28;6.10;99.90
72865;DHT22;61000;48.120;11.548;2023-01-10T13:33:02;6.10;99.90
72865;DHT22;61000;48.120;11.548;2023-01-10T13:35:37;6.10;99.90
72865;DHT22;61000;48.120;11.548;2023-01-10T13:38:13;6.10;99.90
72865;DHT22;61000;48.120;11.548;2023-01-10T13:40:59;6.00;99.90
72865;DHT22;61000;48.120;11.548;2023-01-10T13:43:31;5.90;99.90
72865;DHT22;61000;48.120;11.548;2023-01-10T13:46:33;5.90;99.90
72865;DHT22;61000;48.120;11.548;2023-01-10T13:49:37;5.80;99.90
72865;DHT22;61000;48.120;11.548;2023-01-10T13:52:31;5.90;99.90
72865;DHT22;61000;48.120;11.548;2023-01-10T13:55:01;5.90;99.90
72865;DHT22;61000;48.120;11.548;2023-01-10T13:57:51;5.90;99.90
72865;DHT22;61000;48.120;11.548;2023-01-10T14:00:40;5.90;99.90
72865;DHT22;61000;48.120;11.548;2023-01-10T14:03:54;5.90;99.90
72865;DHT22;61000;48.120;11.548;2023-01-10T14:06:34;5.90;99.90
72865;DHT22;61000;48.120;11.548;2023-01-10T14:09:40;5.80;99.90
72865;DHT22;61000;48.120;11.548;2023-01-10T14:12:27;5.80;99.90
72865;DHT22;61000;48.120;11.548;2023-01-10T14:14:59;6.10;99.90
72865;DHT22;61000;48.120;11.548;2023-01-10T14:17:29;5.90;99.90
72865;DHT22;61000;48.120;11.548;2023-01-10T14:20:00;5.90;99.90
72865;DHT22;61000;48.120;11.548;2023-01-10T14:22:29;5.80;99.90
72865;DHT22;61000;48.120;11.548;2023-01-10T14:24:58;5.80;99.90
72865;DHT22;61000;48.120;11.548;2023-01-10T14:27:33;5.90;99.90
72865;DHT22;61000;48.120;11.548;2023-01-10T14:30:03;5.90;99.90
72865;DHT22;61000;48.120;11.548;2023-01-10T14:32:33;5.80;99.90
72865;DHT22;61000;48.120;11.548;2023-01-10T14:35:05;6.10;99.90
72865;DHT22;61000;48.120;11.548;2023-01-10T14:37:37;5.80;99.90
72865;DHT22;61000;48.120;11.548;2023-01-10T14:40:14;5.80;99.90
72865;DHT22;61000;48.120;11.548;2023-01-10T14:42:45;6.00;99.90
72865;DHT22;61000;48.120;11.548;2023-01-10T14:45:22;5.80;99.90
72865;DHT22;61000;48.120;11.548;2023-01-10T14:47:51;5.90;99.90
72865;DHT22;61000;48.120;11.548;2023-01-10T14:50:23;5.90;99.90
72865;DHT22;61000;48.120;11.548;2023-01-10T14:52:52;5.90;99.90
72865;DHT22;61000;48.120;11.548;2023-01-10T14:55:19;6.00;99.90
72865;DHT22;61000;48.120;11.548;2023-01-10T14:57:54;6.00;99.90
72865;DHT22;61000;48.120;11.548;2023-01-10T15:00:27;6.00;99.90
72865;DHT22;61000;48.120;11.548;2023-01-10T15:02:55;6.00;99.90
72865;DHT22;61000;48.120;11.548;2023-01-10T15:05:25;6.00;99.90
72865;DHT22;61000;48.120;11.548;2023-01-10T15:07:52;6.00;99.90
72865;DHT22;61000;48.120;11.548;2023-01-10T15:10:22;6.00;99.90
72865;DHT22;61000;48.120;11.548;2023-01-10T15:12:51;6.00;99.90
72865;DHT22;61000;48.120;11.548;2023-01-10T15:15:21;6.10;99.90
72865;DHT22;61000;48.120;11.548;2023-01-10T15:17:51;5.90;99.90
72865;DHT22;61000;48.120;11.548;2023-01-10T15:20:19;5.80;99.90
72865;DHT22;61000;48.120;11.548;2023-01-10T15:22:49;5.80;99.90
72865;DHT22;61000;48.120;11.548;2023-01-10T15:25:28;5.80;99.90
72865;DHT22;61000;48.120;11.548;2023-01-10T15:27:57;5.70;99.90
72865;DHT22;61000;48.120;11.548;2023-01-10T15:30:26;5.80;99.90
72865;DHT22;61000;48.120;11.548;2023-01-10T15:32:59;5.60;99.90
72865;DHT22;61000;48.120;11.548;2023-01-10T15:35:27;5.50;99.90
72865;DHT22;61000;48.120;11.548;2023-01-10T15:37:57;5.50;99.90
72865;DHT22;61000;48.120;11.548;2023-01-10T15:40:29;5.50;99.90
72865;DHT22;61000;48.120;11.548;2023-01-10T15:43:10;5.40;99.90
72865;DHT22;61000;48.120;11.548;2023-01-10T15:45:38;5.40;99.90
72865;DHT22;61000;48.120;11.548;2023-01-10T15:48:28;5.50;99.90
72865;DHT22;61000;48.120;11.548;2023-01-10T15:50:57;5.20;99.90
72865;DHT22;61000;48.120;11.548;2023-01-10T15:53:54;5.20;99.90
72865;DHT22;61000;48.120;11.548;2023-01-10T15:56:25;5.10;99.90
72865;DHT22;61000;48.120;11.548;2023-01-10T15:58:53;5.10;99.90
72865;DHT22;61000;48.120;11.548;2023-01-10T16:01:20;5.00;99.90
72865;DHT22;61000;48.120;11.548;2023-01-10T16:03:51;5.00;99.90